Hawthorne, NV (89415)

3:21 AM PDT on August 22, 2014 (GMT -0700)
Fallon Naval Air Station | Change Station
CLOSE
Current Station
Airport
Location: Fallon NAS,
Elevation: 3934 ft
Nearby Weather Stations

Elev 3934 ft 39.42 °N, 118.70 °W | Updated 25 minutes ago

Clear
Clear
66 °F
Feels Like 66 °F
N
5
Wind Variable Wind from West

Today
High -- | Low -- °F
--% Chance of Precip.
Yesterday
High -- | Low -- °F
Precip. -- in
6:15 AM 7:39 PM
Waning Crescent, 9% visible
Pressure 29.92 in
Visibility 10.0 miles
Clouds Clear
Dew Point 32 °F
Humidity 28%
Rainfall 0.00 in
Snow Depth Not available.
UV 0 out of 12
Pollen 7.30 out of 12
Air Quality Not available.
Flu Activity Not available.
METAR KNFL 220956Z AUTO 27004KT 10SM CLR 19/00 A3000 RMK AO2 SLP131 T01890000

More Conditions Fewer Conditions

Pressure 29.92 in
Visibility 10.0 miles
Clouds Clear
Dew Point 32 °F
Humidity 28%
Rainfall 0.00 in
Snow Depth Not available.
UV 0 out of 12
Pollen 7.30 out of 12
Air Quality Not available.
Flu Activity Not available.
METAR KNFL 220956Z AUTO 27004KT 10SM CLR 19/00 A3000 RMK AO2 SLP131 T01890000

More Conditions Fewer Conditions

10-Day Weather Forecast

Almanac

Astronomy

Aug. 22, 2014 Rise Set
Actual Time 6:15 AM PDT 7:39 PM PDT
Civil Twilight 5:47 AM PDT 8:07 PM PDT
Nautical Twilight 5:13 AM PDT 8:40 PM PDT
Astronomical Twilight 4:38 AM PDT 9:15 PM PDT
Moon 3:42 AM PDT 5:50 PM PDT
Length of Visible Light 14h 19m
Length of Day
13h 24m
Tomorrow will be 2m 18s shorter.
Waning Crescent, 9% of the Moon is Illuminated
Today
Waning Crescent
Aug 25
New
Sep 2
First Quarter
Sep 8
Full
Sep 15
Last Quarter

Today's Extremes

State Highs State Lows

Community

WunderPhotos

Upload Photos

1,746,149 photos uploaded!

Nearby

Snow Depth

Station Depth Elevation
Marlette Lake 0 in 8000 ft
Mt. Rose Ski Area 0 in 8850 ft
Big Creek Summit 1 in 8700 ft
Lewis Peak 0 in 7400 ft
Diamond Peak 1 in 8000 ft

Earthquake Activity

City Distance Mag. Time & Date
No recent earthquake activity has been reported nearby.
Minimum magnitude displayed is 2.5.

Coastal Water Temperatures

Place Temperature
No Stations Reporting

Nearby Weather Stations